Time;durP1;ratioP1;P1;durP2;ratioP2;P2;SDS_P1;SDS_P2;PMS_P1;PMS_P2;Temp;Humidity;BMP_temperature;BMP_pressure;BME280_temperature;BME280_humidity;BME280_pressure;Samples;Min_cycle;Max_cycle;Signal;HPM_P1;HPM_P2
2021/12/30 00:00:14;;;;;;;1.35;0.52;;;;;;;10.21;100.00;95434.91;4843307;29;20046;-49
2021/12/30 00:02:41;;;;;;;0.57;0.40;;;;;;;10.25;100.00;95438.47;4828000;29;20070;-48
2021/12/30 00:05:09;;;;;;;1.05;0.65;;;;;;;10.23;100.00;95424.50;4842575;29;20050;-45
2021/12/30 00:07:37;;;;;;;0.40;0.40;;;;;;;10.22;100.00;95447.28;4842302;29;20132;-44
2021/12/30 00:10:05;;;;;;;1.27;0.60;;;;;;;10.24;100.00;95458.53;4840393;29;20038;-45
2021/12/30 00:12:32;;;;;;;0.47;0.43;;;;;;;10.22;100.00;95471.59;4841780;29;20404;-48
2021/12/30 00:14:59;;;;;;;0.60;0.50;;;;;;;10.20;100.00;95465.75;4841880;29;20046;-45
2021/12/30 00:17:26;;;;;;;0.52;0.50;;;;;;;10.23;100.00;95481.28;4836531;29;20058;-48
2021/12/30 00:19:53;;;;;;;0.90;0.57;;;;;;;10.24;100.00;95478.25;4831506;29;20048;-48
2021/12/30 00:22:20;;;;;;;1.25;0.60;;;;;;;10.24;100.00;95486.38;4840813;29;20424;-44
2021/12/30 00:24:47;;;;;;;1.35;0.43;;;;;;;10.33;100.00;95499.78;4842090;29;20401;-45
2021/12/30 00:27:14;;;;;;;10.32;7.13;;;;;;;10.39;100.00;95486.81;4841459;29;20061;-47
2021/12/30 00:29:41;;;;;;;26.75;20.15;;;;;;;10.42;100.00;95491.53;4839967;29;20066;-45
2021/12/30 00:32:08;;;;;;;0.70;0.50;;;;;;;10.31;100.00;95531.78;4833501;29;20042;-48
2021/12/30 00:34:35;;;;;;;0.73;0.50;;;;;;;10.30;100.00;95505.84;4827924;29;20106;-44
2021/12/30 00:37:02;;;;;;;0.70;0.50;;;;;;;10.23;100.00;95503.69;4832449;29;20049;-46
2021/12/30 00:39:29;;;;;;;0.60;0.30;;;;;;;10.25;100.00;95511.47;4839875;29;20045;-48
2021/12/30 00:41:56;;;;;;;0.30;0.30;;;;;;;10.20;100.00;95495.47;4827764;29;20050;-44
2021/12/30 00:44:23;;;;;;;0.55;0.47;;;;;;;10.25;100.00;95506.06;4847977;29;20057;-44
2021/12/30 00:46:50;;;;;;;0.40;0.40;;;;;;;10.29;100.00;95515.09;4841546;29;20526;-47
2021/12/30 00:49:17;;;;;;;0.55;0.30;;;;;;;10.26;100.00;95513.06;4826374;29;20062;-43
2021/12/30 00:51:45;;;;;;;0.63;0.30;;;;;;;10.18;100.00;95519.38;4833612;29;20107;-46
2021/12/30 00:54:13;;;;;;;0.80;0.50;;;;;;;10.18;100.00;95525.56;4824795;29;20061;-48
2021/12/30 00:56:40;;;;;;;0.35;0.30;;;;;;;10.29;100.00;95537.53;4841037;29;20060;-49
2021/12/30 00:59:08;;;;;;;0.32;0.30;;;;;;;10.20;100.00;95522.50;4841989;29;20046;-49
2021/12/30 01:01:35;;;;;;;0.20;0.20;;;;;;;10.28;100.00;95535.97;4830696;29;20046;-48
2021/12/30 01:04:03;;;;;;;1.10;0.40;;;;;;;10.29;100.00;95532.13;4822220;29;20532;-43
2021/12/30 01:06:30;;;;;;;0.93;0.40;;;;;;;10.29;100.00;95544.84;4839942;29;20534;-51
2021/12/30 01:08:58;;;;;;;1.75;0.50;;;;;;;10.27;100.00;95545.19;4837399;29;20046;-50
2021/12/30 01:11:25;;;;;;;2.10;0.20;;;;;;;10.18;100.00;95541.78;4839262;29;20061;-47
2021/12/30 01:14:16;;;;;;;0.70;0.30;;;;;;;10.14;100.00;95546.31;4841003;29;20441;-49
2021/12/30 01:16:46;;;;;;;0.20;0.20;;;;;;;10.20;100.00;95544.94;4841579;29;20052;-50
2021/12/30 01:19:42;;;;;;;0.85;0.45;;;;;;;10.26;100.00;95569.88;4830529;29;20129;-48
2021/12/30 01:22:01;;;;;;;0.63;0.50;;;;;;;10.31;100.00;95583.16;4839368;29;20512;-49
2021/12/30 01:24:28;;;;;;;0.30;0.30;;;;;;;10.29;100.00;95582.69;4840567;29;20087;-47
2021/12/30 01:26:56;;;;;;;1.13;0.40;;;;;;;10.26;100.00;95577.97;4839161;29;20057;-50
2021/12/30 01:29:26;;;;;;;0.77;0.57;;;;;;;10.33;100.00;95585.50;4836389;29;20413;-49
2021/12/30 01:31:53;;;;;;;0.32;0.30;;;;;;;10.33;100.00;95580.88;4833609;29;20072;-49
2021/12/30 01:34:21;;;;;;;1.13;0.40;;;;;;;10.41;100.00;95598.94;4824225;29;20054;-50
2021/12/30 01:36:49;;;;;;;0.30;0.30;;;;;;;10.42;100.00;95597.78;4838364;29;20041;-50
2021/12/30 01:39:18;;;;;;;4.18;2.47;;;;;;;10.49;100.00;95599.94;4840234;29;20560;-43
2021/12/30 01:41:45;;;;;;;1.05;0.63;;;;;;;10.38;100.00;95599.59;4839471;29;20045;-43
2021/12/30 01:44:17;;;;;;;0.50;0.40;;;;;;;10.37;100.00;95597.25;4839629;29;20121;-49
2021/12/30 01:46:45;;;;;;;0.73;0.25;;;;;;;10.36;100.00;95595.66;4840322;29;20420;-44
2021/12/30 01:49:13;;;;;;;0.40;0.40;;;;;;;10.35;100.00;95588.69;4840850;29;20045;-44
2021/12/30 01:51:41;;;;;;;0.70;0.50;;;;;;;10.33;100.00;95596.34;4837033;29;20064;-43
2021/12/30 01:54:10;;;;;;;2.25;0.40;;;;;;;10.25;100.00;95589.91;4839769;29;20052;-42
2021/12/30 01:56:37;;;;;;;0.32;0.30;;;;;;;10.44;100.00;95602.88;4838999;29;20046;-46
2021/12/30 01:59:04;;;;;;;0.38;0.28;;;;;;;10.46;100.00;95623.06;4840127;29;20053;-43
2021/12/30 02:01:31;;;;;;;0.22;0.20;;;;;;;10.42;100.00;95626.75;4838950;29;20054;-44
2021/12/30 02:03:59;;;;;;;0.25;0.25;;;;;;;10.56;100.00;95626.41;4839589;29;20046;-48
2021/12/30 02:06:26;;;;;;;0.50;0.28;;;;;;;10.52;100.00;95620.91;4855042;29;20045;-47
2021/12/30 02:08:54;;;;;;;0.28;0.20;;;;;;;10.58;100.00;95645.81;4842872;29;20065;-45
2021/12/30 02:11:22;;;;;;;0.45;0.30;;;;;;;10.60;100.00;95643.56;4861614;23;20066;-43
2021/12/30 02:13:50;;;;;;;0.40;0.40;;;;;;;10.53;100.00;95644.91;4825707;29;20070;-42
2021/12/30 02:16:20;;;;;;;0.75;0.30;;;;;;;10.62;100.00;95642.06;4826395;29;20050;-48
2021/12/30 02:18:48;;;;;;;0.20;0.20;;;;;;;10.66;100.00;95647.59;4834049;29;20047;-45
2021/12/30 02:21:15;;;;;;;0.50;0.47;;;;;;;10.57;100.00;95660.47;4829253;29;20463;-47
2021/12/30 02:23:42;;;;;;;0.30;0.30;;;;;;;10.57;100.00;95655.06;4839486;29;20072;-50
2021/12/30 02:26:15;;;;;;;0.20;0.20;;;;;;;10.56;100.00;95648.06;4841360;29;20128;-50
2021/12/30 02:28:43;;;;;;;0.40;0.30;;;;;;;10.53;100.00;95646.84;4843837;29;20046;-45
2021/12/30 02:31:15;;;;;;;0.50;0.38;;;;;;;10.50;100.00;95651.00;4831775;29;20043;-45
2021/12/30 02:33:44;;;;;;;0.20;0.20;;;;;;;10.41;100.00;95647.63;4832821;29;20496;-47
2021/12/30 02:36:14;;;;;;;0.40;0.40;;;;;;;10.55;100.00;95655.38;4840598;29;20050;-50
2021/12/30 02:38:44;;;;;;;0.20;0.20;;;;;;;10.50;100.00;95645.59;4841719;29;20065;-45
2021/12/30 02:41:17;;;;;;;0.30;0.30;;;;;;;10.53;100.00;95639.50;4843578;29;20058;-47
2021/12/30 02:43:47;;;;;;;0.20;0.20;;;;;;;10.59;100.00;95663.59;4843217;29;20058;-50
2021/12/30 02:46:16;;;;;;;0.88;0.40;;;;;;;10.56;100.00;95664.28;4840388;29;20046;-47
2021/12/30 02:48:43;;;;;;;0.60;0.50;;;;;;;10.60;100.00;95679.53;4829044;29;20034;-46
2021/12/30 02:51:11;;;;;;;0.43;0.40;;;;;;;10.63;100.00;95680.75;4842141;29;20198;-48
2021/12/30 02:53:39;;;;;;;0.88;0.40;;;;;;;10.57;100.00;95687.53;4843137;29;20209;-48
2021/12/30 02:56:07;;;;;;;1.58;0.30;;;;;;;10.67;100.00;95682.44;4843395;29;20515;-47
2021/12/30 02:58:34;;;;;;;0.80;0.30;;;;;;;10.64;100.00;95693.94;4842039;29;20504;-48
2021/12/30 03:01:15;;;;;;;0.40;0.30;;;;;;;10.68;100.00;95700.25;4841578;29;20053;-47
2021/12/30 03:03:43;;;;;;;1.27;0.40;;;;;;;10.73;100.00;95710.84;4840102;29;20072;-47
2021/12/30 03:06:13;;;;;;;0.30;0.30;;;;;;;10.74;100.00;95711.66;4841713;29;20054;-47
2021/12/30 03:08:41;;;;;;;0.35;0.20;;;;;;;10.72;100.00;95706.59;4840504;29;20046;-47
2021/12/30 03:11:08;;;;;;;0.40;0.40;;;;;;;10.75;100.00;95721.34;4842585;29;20046;-46
2021/12/30 03:13:40;;;;;;;0.40;0.40;;;;;;;10.73;100.00;95727.09;4842054;29;20045;-49
2021/12/30 03:16:20;;;;;;;1.75;0.30;;;;;;;10.73;100.00;95724.38;4838469;29;20050;-49
2021/12/30 03:18:49;;;;;;;0.40;0.30;;;;;;;10.69;100.00;95731.59;4832302;29;20528;-45
2021/12/30 03:21:19;;;;;;;0.45;0.32;;;;;;;10.67;100.00;95743.88;4838766;29;20121;-46
2021/12/30 03:23:47;;;;;;;1.08;0.30;;;;;;;10.53;100.00;95746.94;4836102;29;20468;-46
2021/12/30 03:26:15;;;;;;;0.55;0.40;;;;;;;10.58;100.00;95754.81;4838533;29;20050;-45
2021/12/30 03:28:43;;;;;;;0.30;0.30;;;;;;;10.45;100.00;95759.41;4839184;29;20047;-43
2021/12/30 03:31:13;;;;;;;0.52;0.32;;;;;;;10.44;100.00;95759.75;4832207;29;20061;-51
2021/12/30 03:33:40;;;;;;;2.83;0.45;;;;;;;10.41;100.00;95772.03;4835273;29;20050;-43
2021/12/30 03:36:09;;;;;;;0.30;0.30;;;;;;;10.42;100.00;95767.41;4842796;29;20053;-42
2021/12/30 03:38:39;;;;;;;0.57;0.40;;;;;;;10.24;100.00;95772.19;4838810;29;20397;-46
2021/12/30 03:41:10;;;;;;;0.70;0.47;;;;;;;10.29;100.00;95769.28;4823239;29;20129;-49
2021/12/30 03:43:37;;;;;;;0.40;0.40;;;;;;;10.29;100.00;95780.09;4838693;29;20060;-47
2021/12/30 03:46:06;;;;;;;0.50;0.40;;;;;;;10.31;100.00;95777.06;4837794;29;20047;-44
2021/12/30 03:48:35;;;;;;;0.35;0.35;;;;;;;10.17;100.00;95780.03;4830297;29;20050;-43
2021/12/30 03:51:08;;;;;;;0.45;0.32;;;;;;;10.26;100.00;95775.34;4841272;29;20488;-43
2021/12/30 03:53:39;;;;;;;1.15;0.35;;;;;;;10.34;100.00;95779.91;4840867;29;20053;-44
2021/12/30 03:56:08;;;;;;;0.68;0.38;;;;;;;10.37;100.00;95792.75;4842286;29;20042;-44
2021/12/30 03:58:36;;;;;;;0.80;0.30;;;;;;;10.28;100.00;95797.47;4841988;29;20132;-48
2021/12/30 04:01:03;;;;;;;0.57;0.55;;;;;;;10.29;100.00;95796.31;4840122;29;20049;-45
2021/12/30 04:03:31;;;;;;;1.00;0.50;;;;;;;10.34;100.00;95801.53;4841506;29;20134;-44
2021/12/30 04:05:58;;;;;;;1.00;0.50;;;;;;;10.33;100.00;95818.88;4841911;29;20046;-45
2021/12/30 04:08:25;;;;;;;1.00;0.55;;;;;;;10.31;100.00;95817.63;4841850;29;20050;-42
2021/12/30 04:10:52;;;;;;;0.40;0.40;;;;;;;10.26;100.00;95824.03;4839871;29;20041;-47
2021/12/30 04:13:19;;;;;;;0.65;0.60;;;;;;;10.31;100.00;95826.53;4839828;29;20053;-44
2021/12/30 04:15:46;;;;;;;0.52;0.52;;;;;;;10.28;100.00;95836.09;4841176;29;20060;-49
2021/12/30 04:18:14;;;;;;;1.35;0.60;;;;;;;10.32;100.00;95832.72;4842029;29;20057;-50
2021/12/30 04:20:41;;;;;;;0.82;0.65;;;;;;;10.32;100.00;95840.84;4840284;29;20050;-50
2021/12/30 04:23:08;;;;;;;0.70;0.60;;;;;;;10.36;100.00;95856.06;4834303;29;20061;-49
2021/12/30 04:25:35;;;;;;;0.70;0.45;;;;;;;10.36;100.00;95861.47;4841385;29;20049;-47
2021/12/30 04:28:02;;;;;;;0.65;0.50;;;;;;;10.35;100.00;95851.78;4840290;29;20080;-50
2021/12/30 04:30:30;;;;;;;2.22;0.50;;;;;;;10.31;100.00;95859.00;4841192;29;20061;-45
2021/12/30 04:32:57;;;;;;;0.95;0.60;;;;;;;10.38;100.00;95864.66;4830727;29;20409;-43
2021/12/30 04:35:30;;;;;;;0.65;0.55;;;;;;;10.38;100.00;95867.34;4840579;29;20131;-44
2021/12/30 04:37:57;;;;;;;0.95;0.50;;;;;;;10.40;100.00;95869.72;4841274;29;20108;-44
2021/12/30 04:40:24;;;;;;;2.22;0.65;;;;;;;10.31;100.00;95867.09;4840023;29;20068;-42
2021/12/30 04:42:51;;;;;;;1.33;0.57;;;;;;;10.31;100.00;95875.22;4840846;29;20556;-46
2021/12/30 04:45:18;;;;;;;0.80;0.60;;;;;;;10.33;100.00;95867.53;4840899;29;20065;-48
2021/12/30 04:47:46;;;;;;;1.30;0.50;;;;;;;10.38;100.00;95882.78;4840672;29;20062;-43
2021/12/30 04:50:14;;;;;;;0.90;0.65;;;;;;;10.46;100.00;95882.72;4840134;29;20046;-43
2021/12/30 04:52:41;;;;;;;0.50;0.40;;;;;;;10.37;100.00;95895.53;4831318;29;20061;-45
2021/12/30 04:55:09;;;;;;;6.72;0.55;;;;;;;10.39;100.00;95898.69;4840584;29;20058;-46
2021/12/30 04:57:36;;;;;;;2.28;0.55;;;;;;;10.38;100.00;95902.50;4840423;29;20181;-47
2021/12/30 05:00:09;;;;;;;0.50;0.50;;;;;;;10.19;100.00;95904.88;4838855;29;20050;-50
2021/12/30 05:03:01;;;;;;;0.52;0.52;;;;;;;10.35;100.00;95903.16;4840138;29;20432;-47
2021/12/30 05:05:23;;;;;;;0.50;0.50;;;;;;;10.33;100.00;95908.09;4840629;29;20053;-47
2021/12/30 05:07:50;;;;;;;0.60;0.38;;;;;;;10.21;100.00;95918.84;4839760;29;20500;-50
2021/12/30 05:10:17;;;;;;;0.35;0.35;;;;;;;10.36;100.00;95920.97;4821816;29;20058;-48
2021/12/30 05:12:45;;;;;;;0.88;0.57;;;;;;;10.29;100.00;95920.72;4839132;29;20125;-49
2021/12/30 05:15:13;;;;;;;0.47;0.40;;;;;;;10.19;100.00;95934.59;4824738;29;20050;-50
2021/12/30 05:17:41;;;;;;;0.60;0.60;;;;;;;10.31;100.00;95940.13;4839130;29;20050;-49
2021/12/30 05:20:09;;;;;;;0.55;0.52;;;;;;;10.26;100.00;95941.09;4837841;29;20046;-46
2021/12/30 05:22:36;;;;;;;0.60;0.55;;;;;;;10.33;100.00;95945.19;4835319;29;20046;-48
2021/12/30 05:25:03;;;;;;;0.45;0.45;;;;;;;10.41;100.00;95938.94;4840383;29;20053;-42
2021/12/30 05:27:30;;;;;;;0.95;0.60;;;;;;;10.39;100.00;95936.53;4839053;29;20050;-49
2021/12/30 05:29:57;;;;;;;0.50;0.50;;;;;;;10.38;100.00;95934.19;4840255;29;20049;-45
2021/12/30 05:32:24;;;;;;;1.35;0.60;;;;;;;10.42;100.00;95946.69;4838101;29;20528;-48
2021/12/30 05:34:51;;;;;;;0.55;0.50;;;;;;;10.36;100.00;95961.53;4839859;29;20050;-49
2021/12/30 05:37:18;;;;;;;1.15;0.60;;;;;;;10.42;100.00;95957.50;4839535;29;20417;-42
2021/12/30 05:39:45;;;;;;;0.38;0.38;;;;;;;10.47;100.00;95960.03;4839504;29;20354;-47
2021/12/30 05:42:12;;;;;;;8.68;1.00;;;;;;;10.46;100.00;95957.66;4839912;29;20458;-48
2021/12/30 05:44:40;;;;;;;1.20;0.43;;;;;;;10.38;100.00;95962.00;4839292;29;20057;-46
2021/12/30 05:47:08;;;;;;;0.68;0.50;;;;;;;10.47;100.00;95965.44;4840031;29;20042;-50
2021/12/30 05:49:34;;;;;;;1.15;0.50;;;;;;;10.44;100.00;95968.03;4836822;29;20133;-50
2021/12/30 05:52:02;;;;;;;0.47;0.47;;;;;;;10.42;100.00;95971.03;4833779;29;20073;-47
2021/12/30 05:54:29;;;;;;;0.80;0.73;;;;;;;10.48;100.00;95985.16;4839416;29;20054;-50
2021/12/30 05:56:55;;;;;;;0.77;0.50;;;;;;;10.45;100.00;95962.28;4839668;29;20045;-46
2021/12/30 05:59:22;;;;;;;1.52;0.57;;;;;;;10.41;100.00;95965.97;4836880;29;20111;-49
2021/12/30 06:01:50;;;;;;;0.88;0.60;;;;;;;10.44;100.00;95970.72;4839657;29;20054;-50
2021/12/30 06:04:17;;;;;;;0.50;0.50;;;;;;;10.56;100.00;95967.28;4838234;29;20077;-48
2021/12/30 06:06:44;;;;;;;0.60;0.60;;;;;;;10.69;100.00;95987.84;4839888;29;20054;-49
2021/12/30 06:09:11;;;;;;;0.55;0.52;;;;;;;10.64;100.00;95988.06;4836720;29;20050;-49
2021/12/30 06:11:38;;;;;;;0.90;0.52;;;;;;;10.65;100.00;95992.34;4837517;29;20518;-47
2021/12/30 06:14:05;;;;;;;2.40;0.50;;;;;;;10.55;100.00;95987.34;4837746;29;20050;-48
2021/12/30 06:16:33;;;;;;;1.08;0.60;;;;;;;10.55;100.00;95996.25;4839872;29;20057;-49
2021/12/30 06:19:03;;;;;;;0.85;0.50;;;;;;;10.62;100.00;96001.13;4835796;29;20473;-48
2021/12/30 06:21:30;;;;;;;0.50;0.50;;;;;;;10.66;100.00;96004.75;4836645;29;20046;-48
2021/12/30 06:23:57;;;;;;;1.15;0.60;;;;;;;10.58;100.00;96019.16;4839732;29;20054;-47
2021/12/30 06:26:24;;;;;;;1.02;0.80;;;;;;;10.53;100.00;96017.44;4839845;29;20046;-47
2021/12/30 06:28:52;;;;;;;0.52;0.50;;;;;;;10.55;100.00;96028.72;4840359;29;20052;-46
2021/12/30 06:31:18;;;;;;;0.90;0.60;;;;;;;10.67;100.00;96028.00;4839096;29;20515;-50
2021/12/30 06:33:46;;;;;;;1.77;0.50;;;;;;;10.68;100.00;96022.25;4839664;29;20050;-47
2021/12/30 06:36:13;;;;;;;0.90;0.55;;;;;;;10.64;100.00;96012.44;4839823;29;20160;-47
2021/12/30 06:38:40;;;;;;;1.55;0.80;;;;;;;10.60;100.00;96019.63;4838444;29;20046;-49
2021/12/30 06:41:07;;;;;;;0.90;0.50;;;;;;;10.75;100.00;96025.22;4838745;29;20465;-46
2021/12/30 06:43:35;;;;;;;0.77;0.50;;;;;;;10.88;100.00;96028.75;4839532;29;20733;-46
2021/12/30 06:46:04;;;;;;;1.70;0.80;;;;;;;10.53;100.00;96034.47;4840015;29;20080;-47
2021/12/30 06:48:32;;;;;;;0.95;0.63;;;;;;;10.59;100.00;96026.91;4838714;29;20054;-47
2021/12/30 06:51:00;;;;;;;1.33;0.60;;;;;;;10.64;100.00;96034.84;4838639;29;20050;-46
2021/12/30 06:53:27;;;;;;;1.17;0.60;;;;;;;10.33;100.00;96035.22;4838875;29;20046;-49
2021/12/30 06:55:54;;;;;;;1.25;0.60;;;;;;;10.29;100.00;96035.06;4839482;29;20126;-47
2021/12/30 06:58:21;;;;;;;1.38;0.80;;;;;;;10.43;100.00;96025.94;4839905;29;20058;-50
2021/12/30 07:00:49;;;;;;;1.00;0.60;;;;;;;10.67;100.00;96038.81;4833766;29;20053;-50
2021/12/30 07:03:17;;;;;;;0.77;0.60;;;;;;;10.61;100.00;96035.50;4838761;29;20050;-49
2021/12/30 07:05:45;;;;;;;0.55;0.55;;;;;;;10.61;100.00;96050.97;4839020;29;20057;-50
2021/12/30 07:08:12;;;;;;;1.05;0.70;;;;;;;10.64;100.00;96044.88;4838523;29;20057;-45
2021/12/30 07:10:43;;;;;;;0.93;0.60;;;;;;;10.64;100.00;96045.69;4820372;29;20053;-49
2021/12/30 07:13:10;;;;;;;0.77;0.60;;;;;;;10.92;100.00;96045.94;4838571;29;20081;-50
2021/12/30 07:15:37;;;;;;;1.45;0.70;;;;;;;10.86;100.00;96044.56;4840782;29;20054;-48
2021/12/30 07:18:04;;;;;;;1.02;0.52;;;;;;;10.77;100.00;96049.25;4827391;29;20076;-50
2021/12/30 07:20:31;;;;;;;1.52;0.60;;;;;;;10.69;100.00;96058.22;4841897;29;20046;-51
2021/12/30 07:22:58;;;;;;;1.95;0.50;;;;;;;10.86;100.00;96057.31;4840183;29;20050;-46
2021/12/30 07:25:25;;;;;;;1.63;0.50;;;;;;;10.80;100.00;96062.13;4842495;29;20054;-52
2021/12/30 07:27:54;;;;;;;0.90;0.68;;;;;;;10.82;100.00;96051.78;4841693;29;20431;-50
2021/12/30 07:30:24;;;;;;;1.20;0.88;;;;;;;10.81;100.00;96054.78;4841600;29;20524;-48
2021/12/30 07:32:51;;;;;;;0.73;0.47;;;;;;;10.95;100.00;96061.53;4827049;29;20049;-50
2021/12/30 07:35:24;;;;;;;0.75;0.60;;;;;;;10.97;100.00;96061.19;4842322;29;20125;-51
2021/12/30 07:37:51;;;;;;;1.08;0.70;;;;;;;10.70;100.00;96059.81;4842170;29;20054;-48
2021/12/30 07:40:18;;;;;;;0.70;0.55;;;;;;;10.81;100.00;96062.91;4831037;29;20497;-43
2021/12/30 07:42:46;;;;;;;0.88;0.60;;;;;;;10.83;100.00;96068.78;4840966;29;20053;-45
2021/12/30 07:45:13;;;;;;;0.55;0.50;;;;;;;10.81;100.00;96082.66;4841492;29;20496;-46
2021/12/30 07:47:41;;;;;;;0.98;0.40;;;;;;;10.81;100.00;96074.53;4840805;29;20508;-47
2021/12/30 07:50:11;;;;;;;1.25;0.63;;;;;;;10.86;100.00;96065.44;4842076;29;20132;-44
2021/12/30 07:52:39;;;;;;;1.88;0.98;;;;;;;10.76;100.00;96062.00;4838250;29;20054;-47
2021/12/30 07:55:07;;;;;;;1.00;0.40;;;;;;;10.77;100.00;96073.59;4841403;29;20049;-46
2021/12/30 07:57:35;;;;;;;1.15;0.60;;;;;;;10.70;100.00;96076.06;4841831;29;20077;-45
2021/12/30 08:00:06;;;;;;;0.80;0.50;;;;;;;10.69;100.00;96075.25;4840313;29;20475;-47
2021/12/30 08:02:41;;;;;;;1.20;0.60;;;;;;;10.73;100.00;96075.41;4840292;29;20053;-50
2021/12/30 08:05:11;;;;;;;1.20;0.50;;;;;;;10.74;100.00;96076.97;4841135;29;20073;-47
2021/12/30 08:07:38;;;;;;;0.40;0.40;;;;;;;10.79;100.00;96075.97;4838637;29;20121;-42
2021/12/30 08:10:10;;;;;;;0.50;0.50;;;;;;;10.82;100.00;96084.25;4838168;29;20046;-42
2021/12/30 08:12:39;;;;;;;1.88;0.65;;;;;;;10.85;100.00;96069.25;4840748;29;20046;-43
2021/12/30 08:15:06;;;;;;;1.23;0.40;;;;;;;10.86;100.00;96068.13;4840654;29;20058;-42
2021/12/30 08:17:34;;;;;;;0.55;0.40;;;;;;;10.87;100.00;96061.59;4838021;29;20424;-43
2021/12/30 08:20:04;;;;;;;0.47;0.40;;;;;;;10.76;100.00;96063.91;4841446;29;20049;-48
2021/12/30 08:22:31;;;;;;;1.40;0.60;;;;;;;10.91;100.00;96068.72;4840188;29;20060;-46
2021/12/30 08:24:58;;;;;;;1.15;0.57;;;;;;;11.00;100.00;96077.56;4840541;29;20042;-49
2021/12/30 08:27:26;;;;;;;0.90;0.68;;;;;;;10.99;100.00;96083.31;4841468;29;20128;-43
2021/12/30 08:29:53;;;;;;;1.00;0.50;;;;;;;10.96;100.00;96071.22;4836903;29;20045;-45
2021/12/30 08:32:20;;;;;;;0.60;0.40;;;;;;;10.98;100.00;96074.41;4840782;29;20076;-47
2021/12/30 08:34:47;;;;;;;4.25;0.50;;;;;;;11.02;100.00;96071.81;4840950;29;20076;-50
2021/12/30 08:37:15;;;;;;;0.75;0.50;;;;;;;11.07;100.00;96065.41;4839855;29;20046;-43
2021/12/30 08:39:44;;;;;;;1.63;0.50;;;;;;;10.98;100.00;96081.72;4839981;29;20046;-47
2021/12/30 08:42:17;;;;;;;0.57;0.40;;;;;;;11.08;100.00;96080.53;4824797;29;20054;-45
2021/12/30 08:44:44;;;;;;;1.17;0.75;;;;;;;11.13;100.00;96080.31;4840321;29;20061;-43
2021/12/30 08:47:13;;;;;;;1.55;0.50;;;;;;;11.14;100.00;96076.50;4840778;29;20111;-46
2021/12/30 08:49:41;;;;;;;1.50;0.60;;;;;;;11.18;100.00;96085.56;4835472;29;20061;-44
2021/12/30 08:52:09;;;;;;;0.85;0.40;;;;;;;11.17;100.00;96094.78;4840129;29;20042;-45
2021/12/30 08:54:36;;;;;;;0.82;0.30;;;;;;;11.22;100.00;96092.69;4840105;29;20512;-45
2021/12/30 08:57:03;;;;;;;0.25;0.25;;;;;;;11.15;100.00;96102.47;4841143;29;20060;-45
2021/12/30 08:59:30;;;;;;;0.43;0.40;;;;;;;11.18;100.00;96096.38;4837863;29;20057;-46
2021/12/30 09:01:58;;;;;;;0.50;0.50;;;;;;;11.10;100.00;96098.03;4839603;29;20056;-45
2021/12/30 09:04:26;;;;;;;1.13;0.52;;;;;;;11.11;100.00;96104.22;4839906;29;20050;-43
2021/12/30 09:06:53;;;;;;;1.25;0.60;;;;;;;11.04;100.00;96112.09;4839718;29;20087;-44
2021/12/30 09:09:24;;;;;;;1.50;0.68;;;;;;;11.24;100.00;96116.69;4835509;29;20046;-43
2021/12/30 09:11:51;;;;;;;1.80;0.70;;;;;;;11.32;100.00;96113.16;4838818;29;20088;-44
2021/12/30 09:14:19;;;;;;;0.95;0.43;;;;;;;11.14;100.00;96112.47;4840116;29;20501;-44
2021/12/30 09:16:48;;;;;;;1.10;0.70;;;;;;;11.26;100.00;96119.09;4840403;29;20052;-47
2021/12/30 09:19:16;;;;;;;1.20;0.70;;;;;;;11.20;100.00;96115.78;4826981;29;20051;-43
2021/12/30 09:21:49;;;;;;;1.23;0.75;;;;;;;11.22;100.00;96113.56;4836605;29;20154;-47
2021/12/30 09:24:16;;;;;;;1.02;0.60;;;;;;;11.11;100.00;96107.72;4839452;29;20053;-44
2021/12/30 09:26:43;;;;;;;1.50;0.50;;;;;;;11.13;100.00;96115.53;4841005;29;20393;-42
2021/12/30 09:29:10;;;;;;;0.65;0.40;;;;;;;11.15;100.00;96122.22;4840042;29;20129;-44
2021/12/30 09:31:49;;;;;;;1.73;0.60;;;;;;;11.05;100.00;96116.38;4836481;29;20041;-44
2021/12/30 09:34:17;;;;;;;1.20;0.50;;;;;;;11.19;100.00;96120.41;4839524;29;20065;-42
2021/12/30 09:36:45;;;;;;;1.23;0.60;;;;;;;11.31;100.00;96133.25;4839567;29;20049;-43
2021/12/30 09:39:13;;;;;;;1.83;0.47;;;;;;;11.14;100.00;96117.09;4834904;29;20050;-49
2021/12/30 09:41:43;;;;;;;1.05;0.60;;;;;;;11.27;100.00;96126.88;4840102;29;20385;-47
2021/12/30 09:44:16;;;;;;;0.43;0.43;;;;;;;11.17;100.00;96130.00;4839230;29;20488;-48
2021/12/30 09:46:44;;;;;;;0.82;0.60;;;;;;;11.27;100.00;96123.38;4835121;29;20058;-50
2021/12/30 09:49:18;;;;;;;1.42;0.60;;;;;;;11.32;100.00;96118.56;4839297;29;20071;-46
2021/12/30 09:51:46;;;;;;;0.75;0.50;;;;;;;11.31;100.00;96116.97;4831396;29;20477;-49
2021/12/30 09:54:14;;;;;;;2.05;0.60;;;;;;;11.30;100.00;96117.31;4837855;29;20050;-51
2021/12/30 09:56:42;;;;;;;0.82;0.60;;;;;;;11.35;100.00;96111.69;4840070;29;20046;-52
2021/12/30 09:59:10;;;;;;;1.52;0.50;;;;;;;11.33;100.00;96109.31;4839513;29;20049;-51
2021/12/30 10:01:39;;;;;;;1.75;0.70;;;;;;;11.37;100.00;96112.13;4837086;29;20520;-53
2021/12/30 10:04:07;;;;;;;0.88;0.60;;;;;;;11.37;100.00;96109.41;4839641;29;20072;-50
2021/12/30 10:06:34;;;;;;;0.77;0.55;;;;;;;11.44;100.00;96102.34;4837328;29;20052;-48
2021/12/30 10:09:10;;;;;;;1.20;0.60;;;;;;;11.34;100.00;96094.66;4839813;29;20153;-49
2021/12/30 10:11:47;;;;;;;0.57;0.40;;;;;;;11.24;100.00;96108.56;4834037;29;20044;-48
2021/12/30 10:14:26;;;;;;;0.63;0.50;;;;;;;11.28;100.00;96098.69;4828868;29;20072;-48
2021/12/30 10:17:16;;;;;;;1.15;0.70;;;;;;;11.33;100.00;96103.88;4839107;29;20167;-48
2021/12/30 10:19:44;;;;;;;0.93;0.60;;;;;;;11.48;100.00;96099.78;4837213;29;20062;-45
2021/12/30 10:22:14;;;;;;;0.73;0.55;;;;;;;11.53;100.00;96093.34;4825292;29;20421;-49
2021/12/30 10:24:42;;;;;;;0.80;0.52;;;;;;;11.61;100.00;96097.91;4838761;29;20050;-50
2021/12/30 10:27:09;;;;;;;0.95;0.60;;;;;;;11.54;100.00;96093.03;4839866;29;20404;-48
2021/12/30 10:29:44;;;;;;;1.33;0.60;;;;;;;11.68;100.00;96103.56;4840221;29;20046;-48
2021/12/30 10:32:17;;;;;;;1.83;0.70;;;;;;;11.72;100.00;96092.84;4839137;29;20042;-50
2021/12/30 10:35:02;;;;;;;1.58;0.80;;;;;;;11.83;99.91;96081.25;4839432;29;20072;-49
2021/12/30 10:37:29;;;;;;;1.17;0.75;;;;;;;11.83;100.00;96086.66;4839885;29;20440;-48
2021/12/30 10:39:56;;;;;;;0.98;0.68;;;;;;;11.86;99.98;96082.50;4838741;29;20060;-49
2021/12/30 10:42:23;;;;;;;1.38;0.68;;;;;;;12.06;98.78;96086.28;4840047;29;20050;-49
2021/12/30 10:45:03;;;;;;;0.50;0.47;;;;;;;12.07;99.37;96087.84;4838751;29;20081;-50
2021/12/30 10:47:48;;;;;;;0.90;0.60;;;;;;;12.17;98.42;96090.09;4849644;29;20042;-48
2021/12/30 10:50:19;;;;;;;0.70;0.52;;;;;;;12.14;98.69;96088.06;4833463;29;20142;-49
2021/12/30 10:52:49;;;;;;;0.50;0.40;;;;;;;12.34;97.89;96086.38;4828471;29;20046;-44
2021/12/30 10:55:17;;;;;;;2.58;0.75;;;;;;;12.41;97.32;96092.03;4824954;29;20398;-43
2021/12/30 10:57:44;;;;;;;1.33;0.82;;;;;;;12.19;98.67;96093.28;4841347;29;20508;-46
2021/12/30 11:00:28;;;;;;;0.95;0.60;;;;;;;12.26;96.77;96107.06;4831372;29;20097;-43
2021/12/30 11:03:15;;;;;;;0.95;0.52;;;;;;;12.30;97.86;96097.13;4824938;29;20069;-43
2021/12/30 11:06:09;;;;;;;1.13;0.60;;;;;;;12.40;96.77;96095.88;4841154;29;20440;-43
2021/12/30 11:08:36;;;;;;;;;;;;;;;12.36;95.67;96098.47;4838739;29;20049;-47
2021/12/30 11:11:23;;;;;;;0.75;0.43;;;;;;;12.47;96.56;96108.88;4841177;29;19925;-43
2021/12/30 11:13:56;;;;;;;0.63;0.50;;;;;;;12.35;96.47;96115.09;4842371;29;20049;-43
2021/12/30 11:16:23;;;;;;;0.60;0.45;;;;;;;12.35;95.90;96109.69;4841530;29;20417;-50
2021/12/30 11:18:50;;;;;;;1.17;0.60;;;;;;;12.42;96.84;96118.03;4839844;29;20078;-47
2021/12/30 11:21:40;;;;;;;0.47;0.30;;;;;;;12.42;96.27;96114.53;4838221;29;20051;-50
2021/12/30 11:24:09;;;;;;;0.90;0.50;;;;;;;12.35;96.33;96110.47;4837977;29;20057;-49
2021/12/30 11:26:36;;;;;;;2.95;0.60;;;;;;;12.35;95.84;96109.69;4836702;29;20497;-43
2021/12/30 11:29:05;;;;;;;0.70;0.57;;;;;;;12.39;96.38;96107.88;4826297;29;20064;-46
2021/12/30 11:31:33;;;;;;;1.40;0.50;;;;;;;12.46;95.73;96115.44;4823882;29;20050;-43
2021/12/30 11:34:01;;;;;;;0.47;0.38;;;;;;;12.56;95.67;96113.06;4837640;29;20046;-41